DAFH

Hassi R'Mel Airport

Airport
ICAO code
DAFH
IATA Code
HRM
Summary
ICAO Region
AFI
ICAO Territory
Location

, Laghouat

Serving
Tilrempt
Elevation
2540 ft
Coordinates
32° 55' 50" N , 3° 18' 42" E
Metar
DAFH 271100Z 32017KT 290V350 5000 DRSA FEW033 SCT080 12/M02 Q1010

Runways

Designator Length Width Surface Rops
9/27 1431 30 ASP No/No
8/26 2998 45 ASP No/No

Airport map

Aerial View

SKYbrary Partners:

Safety knowledge contributed by: